Terminal Aerodrome Forecast
Issued by NWS Cleveland, OH

Home | Current Version | Previous Version | Text Only | Print | Product List | Glossary Off
Versions: 1 2 3 4 5 6 7 8 9 10 11 12 13 14 15 16 17

000
FTUS41 KCLE 292340
TAFCAK
TAF
KCAK 292340Z 3000/3024 20006KT P6SM SCT080 BKN150
     FM300200 VRB04KT P6SM VCSH BKN070 OVC120
      TEMPO 3003/3007 5SM -SHRA BKN060
     FM300900 19003KT 4SM BR VCSH BKN060 OVC080
     FM301500 24005KT 6SM HZ VCSH BKN060=

USA.gov is the U.S. government's official web portal to all federal, state and local government web resources and services.